KAF2 UHPP-RKSI
Flight info
| Callsign | KAF2 |
|---|---|
| Flight time | 4h 29m |
| Altitude | 38000 |
| Route | SAMIK4L SAMIK T577 UB G227 BAGOM R810 BULOD L771 NULAR B467 KANSU/N0452F380 Y233 BUSKO B467 KAE G597 BIKSI DCT KARBU KARBU3C |
| Aircraft | A319/M-SDE3FGHIRWY/LB1 |
Departure
| Time | 2026-04-21 16:05 |
|---|---|
| Airport | Yelizovo Airport (UHPP) |
Arrival
| Time | 2026-04-21 20:35 |
|---|---|
| Airport | Incheon International Airport (RKSI) |
| Time | Latitude | Longitude | Altitude | Speed | Heading |
|---|---|---|---|---|---|
| 2026-04-21 15:43 | 53.16985 | 158.42615 | 171 ft | 0 kts | 239° |
| 2026-04-21 15:53 | 53.16996 | 158.42642 | 193 ft | 4 kts | 222° |
| 2026-04-21 15:53 | 53.17016 | 158.42659 | 172 ft | 4 kts | 166° |
| 2026-04-21 15:53 | 53.17030 | 158.42646 | 170 ft | 0 kts | 123° |
| 2026-04-21 15:56 | 53.17028 | 158.42652 | 158 ft | 3 kts | 121° |
| 2026-04-21 15:57 | 53.17011 | 158.42714 | 260 ft | 8 kts | 91° |
| 2026-04-21 15:57 | 53.17037 | 158.42831 | 257 ft | 14 kts | 61° |
| 2026-04-21 15:57 | 53.17094 | 158.42997 | 259 ft | 19 kts | 60° |
| 2026-04-21 15:57 | 53.17161 | 158.43186 | 259 ft | 20 kts | 59° |
| 2026-04-21 15:58 | 53.17229 | 158.43381 | 258 ft | 20 kts | 59° |
| 2026-04-21 15:58 | 53.17297 | 158.43574 | 257 ft | 19 kts | 59° |
| 2026-04-21 15:58 | 53.17365 | 158.43766 | 190 ft | 19 kts | 60° |
| 2026-04-21 15:58 | 53.17435 | 158.43965 | 120 ft | 20 kts | 59° |
| 2026-04-21 15:59 | 53.17491 | 158.44164 | 122 ft | 19 kts | 68° |
| 2026-04-21 15:59 | 53.17506 | 158.44356 | 123 ft | 17 kts | 137° |
| 2026-04-21 15:59 | 53.17395 | 158.44439 | 120 ft | 19 kts | 156° |
| 2026-04-21 15:59 | 53.17268 | 158.44526 | 121 ft | 21 kts | 157° |
| 2026-04-21 16:00 | 53.17136 | 158.44617 | 122 ft | 18 kts | 157° |
| 2026-04-21 16:00 | 53.17022 | 158.44696 | 120 ft | 18 kts | 157° |
| 2026-04-21 16:00 | 53.16899 | 158.44781 | 121 ft | 20 kts | 157° |
| 2026-04-21 16:00 | 53.16774 | 158.44868 | 120 ft | 19 kts | 158° |
| 2026-04-21 16:01 | 53.16649 | 158.44955 | 122 ft | 20 kts | 157° |
| 2026-04-21 16:01 | 53.16522 | 158.45043 | 123 ft | 19 kts | 157° |
| 2026-04-21 16:01 | 53.16397 | 158.45130 | 122 ft | 20 kts | 157° |
| 2026-04-21 16:01 | 53.16264 | 158.45221 | 122 ft | 21 kts | 158° |
| 2026-04-21 16:02 | 53.16131 | 158.45313 | 121 ft | 19 kts | 158° |
| 2026-04-21 16:02 | 53.16073 | 158.45451 | 124 ft | 17 kts | 66° |
| 2026-04-21 16:02 | 53.16099 | 158.45631 | 124 ft | 15 kts | 123° |
| 2026-04-21 16:02 | 53.16000 | 158.45711 | 123 ft | 16 kts | 158° |
| 2026-04-21 16:03 | 53.15889 | 158.45789 | 127 ft | 18 kts | 157° |
| 2026-04-21 16:03 | 53.15765 | 158.45874 | 127 ft | 20 kts | 158° |
| 2026-04-21 16:03 | 53.15627 | 158.45970 | 125 ft | 23 kts | 157° |
| 2026-04-21 16:03 | 53.15558 | 158.45938 | 124 ft | 3 kts | 329° |
| 2026-04-21 16:04 | 53.15592 | 158.45942 | 122 ft | 7 kts | 13° |
| 2026-04-21 16:04 | 53.15643 | 158.45957 | 123 ft | 9 kts | 345° |
| 2026-04-21 16:04 | 53.15837 | 158.45824 | 128 ft | 60 kts | 338° |
| 2026-04-21 16:04 | 53.16428 | 158.45415 | 120 ft | 123 kts | 338° |
| 2026-04-21 16:05 | 53.17362 | 158.44779 | 432 ft | 152 kts | 338° |
| 2026-04-21 16:05 | 53.18336 | 158.44092 | 1215 ft | 153 kts | 336° |
| 2026-04-21 16:05 | 53.19324 | 158.43412 | 2129 ft | 155 kts | 337° |
| 2026-04-21 16:05 | 53.20386 | 158.42681 | 2656 ft | 176 kts | 337° |
| 2026-04-21 16:06 | 53.21589 | 158.41849 | 3173 ft | 198 kts | 336° |
| 2026-04-21 16:06 | 53.22937 | 158.40888 | 3668 ft | 225 kts | 336° |
| 2026-04-21 16:06 | 53.24456 | 158.39806 | 4422 ft | 248 kts | 336° |
| 2026-04-21 16:06 | 53.26080 | 158.38648 | 5504 ft | 258 kts | 337° |
| 2026-04-21 16:07 | 53.27758 | 158.37462 | 6632 ft | 265 kts | 338° |
| 2026-04-21 16:07 | 53.28894 | 158.36675 | 7321 ft | 269 kts | 340° |
| 2026-04-21 16:07 | 53.30649 | 158.35475 | 8386 ft | 276 kts | 340° |
| 2026-04-21 16:07 | 53.33041 | 158.33842 | 9769 ft | 285 kts | 340° |
| 2026-04-21 16:08 | 53.36775 | 158.30675 | 10953 ft | 329 kts | 321° |
| 2026-04-21 16:08 | 53.37852 | 158.28738 | 11306 ft | 343 kts | 307° |
| 2026-04-21 16:08 | 53.38905 | 158.25113 | 12102 ft | 353 kts | 287° |
| 2026-04-21 16:09 | 53.39168 | 158.20997 | 12975 ft | 360 kts | 265° |
| 2026-04-21 16:09 | 53.38542 | 158.16935 | 13826 ft | 365 kts | 244° |
| 2026-04-21 16:09 | 53.37074 | 158.13480 | 14581 ft | 368 kts | 224° |
| 2026-04-21 16:09 | 53.35248 | 158.10524 | 15351 ft | 371 kts | 222° |
| 2026-04-21 16:10 | 53.33366 | 158.07525 | 16125 ft | 375 kts | 222° |
| 2026-04-21 16:10 | 53.31459 | 158.04496 | 16888 ft | 380 kts | 222° |
| 2026-04-21 16:10 | 53.29539 | 158.01441 | 17649 ft | 384 kts | 222° |
| 2026-04-21 16:10 | 53.27592 | 157.98334 | 18417 ft | 389 kts | 222° |
| 2026-04-21 16:11 | 53.25625 | 157.95196 | 19086 ft | 393 kts | 223° |
| 2026-04-21 16:11 | 53.23641 | 157.92033 | 19797 ft | 396 kts | 223° |
| 2026-04-21 16:11 | 53.21640 | 157.88849 | 20501 ft | 399 kts | 224° |
| 2026-04-21 16:11 | 53.19624 | 157.85645 | 21198 ft | 402 kts | 224° |
| 2026-04-21 16:12 | 53.17589 | 157.82418 | 21880 ft | 406 kts | 224° |
| 2026-04-21 16:12 | 53.15537 | 157.79168 | 22557 ft | 408 kts | 225° |
| 2026-04-21 16:12 | 53.13468 | 157.75895 | 23211 ft | 411 kts | 225° |
| 2026-04-21 16:12 | 53.11407 | 157.72636 | 23810 ft | 415 kts | 226° |
| 2026-04-21 16:13 | 53.09311 | 157.69321 | 24328 ft | 418 kts | 226° |
| 2026-04-21 16:13 | 53.07205 | 157.65979 | 24832 ft | 420 kts | 228° |
| 2026-04-21 16:13 | 53.05308 | 157.62295 | 25327 ft | 418 kts | 238° |
| 2026-04-21 16:13 | 53.03816 | 157.58160 | 25811 ft | 415 kts | 248° |
| 2026-04-21 16:14 | 53.02772 | 157.53722 | 26376 ft | 411 kts | 258° |
| 2026-04-21 16:14 | 53.02035 | 157.49132 | 26925 ft | 412 kts | 259° |
| 2026-04-21 16:14 | 53.01308 | 157.44581 | 27434 ft | 413 kts | 259° |
| 2026-04-21 16:14 | 53.00562 | 157.39965 | 27958 ft | 415 kts | 259° |
| 2026-04-21 16:15 | 52.99806 | 157.35318 | 28443 ft | 417 kts | 260° |
| 2026-04-21 16:15 | 52.99048 | 157.30666 | 28941 ft | 419 kts | 260° |
| 2026-04-21 16:15 | 52.98285 | 157.25981 | 29430 ft | 420 kts | 260° |
| 2026-04-21 16:15 | 52.97518 | 157.21293 | 29899 ft | 422 kts | 260° |
| 2026-04-21 16:16 | 52.96746 | 157.16574 | 30332 ft | 424 kts | 260° |
| 2026-04-21 16:16 | 52.95971 | 157.11849 | 30660 ft | 426 kts | 261° |
| 2026-04-21 16:16 | 52.95193 | 157.07118 | 31113 ft | 425 kts | 261° |
| 2026-04-21 16:16 | 52.94411 | 157.02381 | 31527 ft | 425 kts | 261° |
| 2026-04-21 16:17 | 52.93633 | 156.97672 | 32050 ft | 422 kts | 261° |
| 2026-04-21 16:17 | 52.92857 | 156.92994 | 32599 ft | 420 kts | 261° |
| 2026-04-21 16:17 | 52.92095 | 156.88410 | 33144 ft | 417 kts | 261° |
| 2026-04-21 16:17 | 52.91324 | 156.83792 | 33699 ft | 415 kts | 261° |
| 2026-04-21 16:18 | 52.90556 | 156.79200 | 34240 ft | 412 kts | 261° |
| 2026-04-21 16:18 | 52.89788 | 156.74625 | 34652 ft | 412 kts | 261° |
| 2026-04-21 16:18 | 52.89017 | 156.70047 | 34986 ft | 414 kts | 260° |
| 2026-04-21 16:18 | 52.88243 | 156.65442 | 35292 ft | 416 kts | 260° |
| 2026-04-21 16:19 | 52.87467 | 156.60826 | 35617 ft | 417 kts | 260° |
| 2026-04-21 16:19 | 52.86685 | 156.56199 | 35969 ft | 418 kts | 259° |
| 2026-04-21 16:19 | 52.85897 | 156.51563 | 36258 ft | 420 kts | 259° |
| 2026-04-21 16:19 | 52.85102 | 156.46907 | 36541 ft | 422 kts | 259° |
| 2026-04-21 16:20 | 52.84300 | 156.42225 | 36819 ft | 424 kts | 259° |
| 2026-04-21 16:20 | 52.83494 | 156.37520 | 37092 ft | 426 kts | 258° |
| 2026-04-21 16:20 | 52.82685 | 156.32801 | 37358 ft | 428 kts | 258° |
| 2026-04-21 16:20 | 52.81869 | 156.28050 | 37626 ft | 430 kts | 258° |
| 2026-04-21 16:21 | 52.80991 | 156.23375 | 37893 ft | 433 kts | 255° |
| 2026-04-21 16:21 | 52.79981 | 156.18661 | 38093 ft | 436 kts | 253° |
| 2026-04-21 16:21 | 52.78891 | 156.13985 | 38117 ft | 436 kts | 251° |
| 2026-04-21 16:22 | 52.76643 | 156.04688 | 38133 ft | 435 kts | 251° |
| 2026-04-21 16:22 | 52.74445 | 155.95381 | 38128 ft | 435 kts | 252° |
| 2026-04-21 16:23 | 52.72296 | 155.86046 | 38125 ft | 435 kts | 252° |
| 2026-04-21 16:23 | 52.70154 | 155.76706 | 38119 ft | 435 kts | 252° |
| 2026-04-21 16:24 | 52.67997 | 155.67395 | 38112 ft | 435 kts | 252° |
| 2026-04-21 16:24 | 52.65836 | 155.58133 | 38115 ft | 435 kts | 252° |
| 2026-04-21 16:25 | 52.63648 | 155.48839 | 38117 ft | 435 kts | 252° |
| 2026-04-21 16:25 | 52.61458 | 155.39565 | 38114 ft | 435 kts | 251° |
| 2026-04-21 16:26 | 52.59264 | 155.30295 | 38113 ft | 434 kts | 251° |
| 2026-04-21 16:26 | 52.57086 | 155.21102 | 38098 ft | 434 kts | 251° |
| 2026-04-21 16:27 | 52.54874 | 155.11841 | 38101 ft | 434 kts | 251° |
| 2026-04-21 16:27 | 52.52672 | 155.02604 | 38100 ft | 434 kts | 251° |
| 2026-04-21 16:28 | 52.50460 | 154.93387 | 38096 ft | 434 kts | 251° |
| 2026-04-21 16:28 | 52.48230 | 154.84178 | 38090 ft | 434 kts | 251° |
| 2026-04-21 16:29 | 52.46007 | 154.75049 | 38088 ft | 434 kts | 251° |
| 2026-04-21 16:29 | 52.43767 | 154.65860 | 38083 ft | 434 kts | 251° |
| 2026-04-21 16:30 | 52.41518 | 154.56671 | 38082 ft | 434 kts | 251° |
| 2026-04-21 16:30 | 52.39269 | 154.47494 | 38085 ft | 434 kts | 251° |
| 2026-04-21 16:31 | 52.37004 | 154.38329 | 38072 ft | 434 kts | 250° |
| 2026-04-21 16:31 | 52.34727 | 154.29159 | 38070 ft | 434 kts | 250° |
| 2026-04-21 16:32 | 52.32450 | 154.20010 | 38062 ft | 435 kts | 250° |
| 2026-04-21 16:32 | 52.30180 | 154.10921 | 38062 ft | 435 kts | 250° |
| 2026-04-21 16:33 | 52.27888 | 154.01785 | 38058 ft | 435 kts | 250° |
| 2026-04-21 16:33 | 52.25564 | 153.92652 | 38049 ft | 435 kts | 251° |
| 2026-04-21 16:34 | 52.23236 | 153.83565 | 38051 ft | 434 kts | 251° |
| 2026-04-21 16:34 | 52.20905 | 153.74504 | 38071 ft | 433 kts | 249° |
| 2026-04-21 16:35 | 52.18569 | 153.65460 | 38063 ft | 432 kts | 249° |
| 2026-04-21 16:35 | 52.16259 | 153.56478 | 38046 ft | 432 kts | 251° |
| 2026-04-21 16:36 | 52.13944 | 153.47458 | 38033 ft | 431 kts | 248° |
| 2026-04-21 16:36 | 52.11631 | 153.38464 | 38039 ft | 430 kts | 248° |
| 2026-04-21 16:37 | 52.09298 | 153.29481 | 38037 ft | 430 kts | 249° |
| 2026-04-21 16:37 | 52.06974 | 153.20544 | 38050 ft | 428 kts | 247° |
| 2026-04-21 16:38 | 52.04627 | 153.11630 | 38027 ft | 428 kts | 249° |
| 2026-04-21 16:38 | 52.02311 | 153.02812 | 38044 ft | 426 kts | 248° |
| 2026-04-21 16:39 | 51.99979 | 152.93963 | 38024 ft | 426 kts | 248° |
| 2026-04-21 16:39 | 51.97629 | 152.85126 | 38004 ft | 427 kts | 248° |
| 2026-04-21 16:40 | 51.95266 | 152.76285 | 37998 ft | 427 kts | 247° |
| 2026-04-21 16:40 | 51.92924 | 152.67475 | 38001 ft | 428 kts | 248° |
| 2026-04-21 16:41 | 51.90944 | 152.60058 | 37989 ft | 429 kts | 246° |
| 2026-04-21 16:41 | 51.88178 | 152.49770 | 38001 ft | 429 kts | 246° |
| 2026-04-21 16:42 | 51.85786 | 152.40907 | 37987 ft | 429 kts | 246° |
| 2026-04-21 16:42 | 51.83386 | 152.32078 | 38002 ft | 428 kts | 246° |
| 2026-04-21 16:43 | 51.80990 | 152.23264 | 37996 ft | 427 kts | 246° |
| 2026-04-21 16:43 | 51.78594 | 152.14473 | 37980 ft | 428 kts | 245° |
| 2026-04-21 16:44 | 51.76201 | 152.05746 | 37972 ft | 427 kts | 244° |
| 2026-04-21 16:44 | 51.73788 | 151.96982 | 37954 ft | 428 kts | 245° |
| 2026-04-21 16:45 | 51.71356 | 151.88192 | 37944 ft | 429 kts | 244° |
| 2026-04-21 16:45 | 51.68918 | 151.79419 | 37963 ft | 429 kts | 246° |
| 2026-04-21 16:46 | 51.66486 | 151.70664 | 37950 ft | 428 kts | 245° |
| 2026-04-21 16:46 | 51.64050 | 151.61924 | 37945 ft | 427 kts | 245° |
| 2026-04-21 16:47 | 51.61616 | 151.53220 | 37949 ft | 426 kts | 243° |
| 2026-04-21 16:47 | 51.59176 | 151.44547 | 37930 ft | 425 kts | 244° |
| 2026-04-21 16:48 | 51.56743 | 151.35931 | 37932 ft | 426 kts | 239° |
| 2026-04-21 16:48 | 51.54283 | 151.27274 | 37898 ft | 426 kts | 243° |
| 2026-04-21 16:49 | 51.51814 | 151.18603 | 37892 ft | 428 kts | 243° |
| 2026-04-21 16:49 | 51.49316 | 151.09909 | 37881 ft | 429 kts | 240° |
| 2026-04-21 16:50 | 51.46822 | 151.01208 | 37900 ft | 428 kts | 243° |
| 2026-04-21 16:50 | 51.44341 | 150.92536 | 37886 ft | 428 kts | 242° |
| 2026-04-21 16:51 | 51.41834 | 150.83869 | 37889 ft | 428 kts | 240° |
| 2026-04-21 16:51 | 51.39341 | 150.75222 | 37872 ft | 428 kts | 246° |
| 2026-04-21 16:52 | 51.36830 | 150.66600 | 37855 ft | 427 kts | 243° |
| 2026-04-21 16:52 | 51.34731 | 150.59443 | 37844 ft | 428 kts | 238° |
| 2026-04-21 16:53 | 51.31815 | 150.49419 | 37844 ft | 428 kts | 242° |
| 2026-04-21 16:53 | 51.29273 | 150.40796 | 37821 ft | 429 kts | 238° |
| 2026-04-21 16:54 | 51.26723 | 150.32173 | 37820 ft | 430 kts | 242° |
| 2026-04-21 16:54 | 51.24166 | 150.23557 | 37836 ft | 429 kts | 240° |
| 2026-04-21 16:55 | 51.21618 | 150.14959 | 37838 ft | 428 kts | 238° |
| 2026-04-21 16:55 | 51.19010 | 150.06280 | 37837 ft | 439 kts | 239° |
| 2026-04-21 16:56 | 51.16335 | 149.97492 | 37817 ft | 441 kts | 238° |
| 2026-04-21 16:56 | 51.13519 | 149.88873 | 37815 ft | 441 kts | 238° |
| 2026-04-21 16:57 | 51.10598 | 149.80256 | 37812 ft | 442 kts | 238° |
| 2026-04-21 16:57 | 51.07659 | 149.71694 | 37807 ft | 441 kts | 235° |
| 2026-04-21 16:58 | 51.04755 | 149.63089 | 37770 ft | 441 kts | 237° |
| 2026-04-21 16:58 | 51.01873 | 149.54475 | 37758 ft | 442 kts | 238° |
| 2026-04-21 16:59 | 50.98955 | 149.45859 | 37742 ft | 443 kts | 238° |
| 2026-04-21 16:59 | 50.96515 | 149.38706 | 37742 ft | 443 kts | 238° |
| 2026-04-21 17:00 | 50.93587 | 149.30093 | 37747 ft | 444 kts | 231° |
| 2026-04-21 17:00 | 50.90640 | 149.21492 | 37736 ft | 444 kts | 236° |
| 2026-04-21 17:01 | 50.87695 | 149.12903 | 37715 ft | 444 kts | 242° |
| 2026-04-21 17:01 | 50.84727 | 149.04320 | 37705 ft | 444 kts | 236° |
| 2026-04-21 17:02 | 50.81756 | 148.95744 | 37724 ft | 445 kts | 237° |
| 2026-04-21 17:02 | 50.78782 | 148.87170 | 37698 ft | 445 kts | 236° |
| 2026-04-21 17:03 | 50.75795 | 148.78591 | 37697 ft | 445 kts | 236° |
| 2026-04-21 17:03 | 50.72809 | 148.70031 | 37666 ft | 445 kts | 239° |
| 2026-04-21 17:04 | 50.69827 | 148.61544 | 37671 ft | 445 kts | 237° |
| 2026-04-21 17:04 | 50.66824 | 148.53020 | 37684 ft | 445 kts | 237° |
| 2026-04-21 17:05 | 50.63822 | 148.44490 | 37682 ft | 445 kts | 236° |
| 2026-04-21 17:05 | 50.60807 | 148.35969 | 37664 ft | 445 kts | 236° |
| 2026-04-21 17:06 | 50.57782 | 148.27448 | 37647 ft | 446 kts | 236° |
| 2026-04-21 17:06 | 50.54743 | 148.18946 | 37679 ft | 445 kts | 235° |
| 2026-04-21 17:07 | 50.51714 | 148.10464 | 37656 ft | 444 kts | 235° |
| 2026-04-21 17:07 | 50.48681 | 148.02015 | 37640 ft | 443 kts | 236° |
| 2026-04-21 17:08 | 50.45654 | 147.93592 | 37623 ft | 443 kts | 236° |
| 2026-04-21 17:08 | 50.42626 | 147.85242 | 37619 ft | 443 kts | 235° |
| 2026-04-21 17:09 | 50.38063 | 147.72631 | 37627 ft | 443 kts | 235° |
| 2026-04-21 17:09 | 50.35017 | 147.64232 | 37606 ft | 443 kts | 233° |
| 2026-04-21 17:10 | 50.31958 | 147.55864 | 37609 ft | 443 kts | 235° |
| 2026-04-21 17:10 | 50.28891 | 147.47504 | 37585 ft | 443 kts | 235° |
| 2026-04-21 17:11 | 50.25819 | 147.39146 | 37583 ft | 443 kts | 235° |
| 2026-04-21 17:11 | 50.22730 | 147.30796 | 37577 ft | 444 kts | 235° |
| 2026-04-21 17:12 | 50.19655 | 147.22492 | 37565 ft | 445 kts | 235° |
| 2026-04-21 17:12 | 50.16556 | 147.14141 | 37564 ft | 445 kts | 235° |
| 2026-04-21 17:13 | 50.13448 | 147.05786 | 37577 ft | 445 kts | 235° |
| 2026-04-21 17:13 | 50.10327 | 146.97430 | 37557 ft | 446 kts | 234° |
| 2026-04-21 17:14 | 50.07183 | 146.89059 | 37541 ft | 447 kts | 234° |
| 2026-04-21 17:14 | 50.04043 | 146.80706 | 37536 ft | 447 kts | 234° |
| 2026-04-21 17:15 | 50.00915 | 146.72407 | 37533 ft | 447 kts | 234° |
| 2026-04-21 17:15 | 49.97762 | 146.64085 | 37525 ft | 447 kts | 234° |
| 2026-04-21 17:16 | 49.94601 | 146.55766 | 37525 ft | 447 kts | 234° |
| 2026-04-21 17:16 | 49.91435 | 146.47453 | 37526 ft | 447 kts | 234° |
| 2026-04-21 17:17 | 49.88260 | 146.39144 | 37530 ft | 448 kts | 234° |
| 2026-04-21 17:17 | 49.85093 | 146.30889 | 37540 ft | 448 kts | 234° |
| 2026-04-21 17:18 | 49.81906 | 146.22590 | 37527 ft | 449 kts | 234° |
| 2026-04-21 17:18 | 49.78704 | 146.14290 | 37525 ft | 449 kts | 234° |
| 2026-04-21 17:19 | 49.75491 | 146.05999 | 37517 ft | 449 kts | 234° |
| 2026-04-21 17:19 | 49.72281 | 145.97716 | 37542 ft | 449 kts | 234° |
| 2026-04-21 17:20 | 49.69061 | 145.89445 | 37514 ft | 449 kts | 234° |
| 2026-04-21 17:20 | 49.65756 | 145.81264 | 37507 ft | 448 kts | 232° |
| 2026-04-21 17:21 | 49.62333 | 145.73216 | 37501 ft | 448 kts | 231° |
| 2026-04-21 17:21 | 49.58894 | 145.65182 | 37512 ft | 449 kts | 232° |
| 2026-04-21 17:22 | 49.55498 | 145.57155 | 37503 ft | 450 kts | 232° |
| 2026-04-21 17:22 | 49.52081 | 145.49067 | 37489 ft | 451 kts | 232° |
| 2026-04-21 17:23 | 49.48648 | 145.40978 | 37488 ft | 451 kts | 232° |
| 2026-04-21 17:23 | 49.45207 | 145.32908 | 37507 ft | 451 kts | 232° |
| 2026-04-21 17:24 | 49.41751 | 145.24826 | 37475 ft | 453 kts | 232° |
| 2026-04-21 17:24 | 49.38283 | 145.16743 | 37469 ft | 454 kts | 232° |
| 2026-04-21 17:25 | 49.34797 | 145.08643 | 37476 ft | 455 kts | 232° |
| 2026-04-21 17:25 | 49.31329 | 145.00611 | 37482 ft | 455 kts | 232° |
| 2026-04-21 17:26 | 49.27830 | 144.92530 | 37495 ft | 455 kts | 232° |
| 2026-04-21 17:26 | 49.24326 | 144.84456 | 37486 ft | 455 kts | 232° |
| 2026-04-21 17:27 | 49.20819 | 144.76405 | 37488 ft | 455 kts | 232° |
| 2026-04-21 17:27 | 49.17303 | 144.68373 | 37477 ft | 454 kts | 232° |
| 2026-04-21 17:28 | 49.13790 | 144.60348 | 37502 ft | 454 kts | 233° |
| 2026-04-21 17:28 | 49.10277 | 144.52350 | 37495 ft | 453 kts | 232° |
| 2026-04-21 17:29 | 49.06777 | 144.44418 | 37487 ft | 453 kts | 232° |
| 2026-04-21 17:29 | 49.03242 | 144.36462 | 37483 ft | 453 kts | 232° |
| 2026-04-21 17:30 | 48.99705 | 144.28514 | 37499 ft | 453 kts | 232° |
| 2026-04-21 17:30 | 48.96161 | 144.20576 | 37494 ft | 452 kts | 232° |
| 2026-04-21 17:31 | 48.92644 | 144.12725 | 37490 ft | 452 kts | 232° |
| 2026-04-21 17:31 | 48.89100 | 144.04837 | 37482 ft | 452 kts | 232° |
| 2026-04-21 17:32 | 48.85549 | 143.96953 | 37504 ft | 452 kts | 232° |
| 2026-04-21 17:32 | 48.81997 | 143.89087 | 37487 ft | 451 kts | 232° |
| 2026-04-21 17:33 | 48.78450 | 143.81259 | 37485 ft | 450 kts | 232° |
| 2026-04-21 17:33 | 48.74901 | 143.73452 | 37475 ft | 449 kts | 232° |
| 2026-04-21 17:34 | 48.71371 | 143.65722 | 37488 ft | 449 kts | 233° |
| 2026-04-21 17:34 | 48.67820 | 143.57956 | 37485 ft | 448 kts | 233° |
| 2026-04-21 17:35 | 48.64268 | 143.50202 | 37474 ft | 448 kts | 232° |
| 2026-04-21 17:35 | 48.60714 | 143.42473 | 37469 ft | 448 kts | 232° |
| 2026-04-21 17:36 | 48.57154 | 143.34758 | 37459 ft | 447 kts | 232° |
| 2026-04-21 17:36 | 48.53589 | 143.27059 | 37461 ft | 448 kts | 232° |
| 2026-04-21 17:37 | 48.50034 | 143.19401 | 37462 ft | 448 kts | 232° |
| 2026-04-21 17:37 | 48.46456 | 143.11708 | 37464 ft | 448 kts | 232° |
| 2026-04-21 17:38 | 48.42873 | 143.04037 | 37475 ft | 447 kts | 232° |
| 2026-04-21 17:38 | 48.39288 | 142.96379 | 37468 ft | 447 kts | 233° |
| 2026-04-21 17:39 | 48.35698 | 142.88736 | 37475 ft | 447 kts | 232° |
| 2026-04-21 17:39 | 48.32095 | 142.81114 | 37474 ft | 447 kts | 232° |
| 2026-04-21 17:40 | 48.28510 | 142.73547 | 37473 ft | 447 kts | 232° |
| 2026-04-21 17:40 | 48.24903 | 142.65947 | 37484 ft | 446 kts | 233° |
| 2026-04-21 17:41 | 48.21302 | 142.58370 | 37482 ft | 446 kts | 233° |
| 2026-04-21 17:41 | 48.17694 | 142.50792 | 37479 ft | 446 kts | 233° |
| 2026-04-21 17:42 | 48.14085 | 142.43248 | 37477 ft | 446 kts | 233° |
| 2026-04-21 17:42 | 48.10492 | 142.35759 | 37488 ft | 445 kts | 233° |
| 2026-04-21 17:43 | 48.06882 | 142.28252 | 37480 ft | 444 kts | 233° |
| 2026-04-21 17:43 | 48.03267 | 142.20759 | 37474 ft | 444 kts | 233° |
| 2026-04-21 17:44 | 47.99648 | 142.13283 | 37474 ft | 444 kts | 233° |
| 2026-04-21 17:44 | 47.96020 | 142.05814 | 37479 ft | 444 kts | 233° |
| 2026-04-21 17:45 | 47.92385 | 141.98359 | 37475 ft | 444 kts | 233° |
| 2026-04-21 17:45 | 47.88778 | 141.90965 | 37473 ft | 444 kts | 233° |
| 2026-04-21 17:46 | 47.85147 | 141.83528 | 37468 ft | 443 kts | 233° |
| 2026-04-21 17:46 | 47.81514 | 141.76111 | 37472 ft | 443 kts | 234° |
| 2026-04-21 17:47 | 47.77807 | 141.68805 | 37480 ft | 442 kts | 232° |
| 2026-04-21 17:47 | 47.73966 | 141.61660 | 37486 ft | 442 kts | 231° |
| 2026-04-21 17:48 | 47.70141 | 141.54592 | 37483 ft | 442 kts | 232° |
| 2026-04-21 17:48 | 47.66311 | 141.47451 | 37489 ft | 441 kts | 232° |
| 2026-04-21 17:49 | 47.62496 | 141.40323 | 37487 ft | 441 kts | 232° |
| 2026-04-21 17:49 | 47.58681 | 141.33213 | 37489 ft | 440 kts | 232° |
| 2026-04-21 17:50 | 47.54899 | 141.26170 | 37483 ft | 440 kts | 232° |
| 2026-04-21 17:50 | 47.51083 | 141.19094 | 37478 ft | 440 kts | 232° |
| 2026-04-21 17:51 | 47.47266 | 141.12045 | 37488 ft | 439 kts | 232° |
| 2026-04-21 17:51 | 47.43449 | 141.05017 | 37492 ft | 438 kts | 232° |
| 2026-04-21 17:52 | 47.39633 | 140.97995 | 37494 ft | 438 kts | 232° |
| 2026-04-21 17:52 | 47.35817 | 140.90993 | 37498 ft | 438 kts | 232° |
| 2026-04-21 17:53 | 47.31996 | 140.84014 | 37506 ft | 437 kts | 232° |
| 2026-04-21 17:53 | 47.28814 | 140.78226 | 37505 ft | 437 kts | 232° |
| 2026-04-21 17:54 | 47.24379 | 140.70136 | 37513 ft | 437 kts | 232° |
| 2026-04-21 17:54 | 47.20553 | 140.63191 | 37514 ft | 436 kts | 232° |
| 2026-04-21 17:55 | 47.17376 | 140.57441 | 37513 ft | 436 kts | 232° |
| 2026-04-21 17:55 | 47.13545 | 140.50526 | 37515 ft | 436 kts | 232° |
| 2026-04-21 17:56 | 47.09718 | 140.43625 | 37513 ft | 435 kts | 232° |
| 2026-04-21 17:56 | 47.05888 | 140.36738 | 37516 ft | 435 kts | 232° |
| 2026-04-21 17:57 | 47.02051 | 140.29875 | 37520 ft | 435 kts | 232° |
| 2026-04-21 17:57 | 46.98218 | 140.23015 | 37520 ft | 435 kts | 232° |
| 2026-04-21 17:58 | 46.94385 | 140.16153 | 37524 ft | 435 kts | 232° |
| 2026-04-21 17:58 | 46.90574 | 140.09347 | 37523 ft | 435 kts | 232° |
| 2026-04-21 17:59 | 46.86797 | 140.02429 | 37516 ft | 434 kts | 238° |
| 2026-04-21 17:59 | 46.84408 | 139.94401 | 37522 ft | 433 kts | 256° |
| 2026-04-21 18:00 | 46.83010 | 139.85852 | 37520 ft | 433 kts | 256° |
| 2026-04-21 18:00 | 46.81587 | 139.77307 | 37524 ft | 433 kts | 256° |
| 2026-04-21 18:01 | 46.80155 | 139.68816 | 37522 ft | 433 kts | 256° |
| 2026-04-21 18:01 | 46.78720 | 139.60287 | 37534 ft | 432 kts | 256° |
| 2026-04-21 18:02 | 46.77230 | 139.51790 | 37533 ft | 432 kts | 251° |
| 2026-04-21 18:02 | 46.76008 | 139.47790 | 37536 ft | 432 kts | 240° |
| 2026-04-21 18:02 | 46.74280 | 139.44205 | 37534 ft | 434 kts | 230° |
| 2026-04-21 18:03 | 46.69627 | 139.38581 | 37535 ft | 437 kts | 217° |
| 2026-04-21 18:03 | 46.64672 | 139.33544 | 37530 ft | 437 kts | 217° |
| 2026-04-21 18:04 | 46.59682 | 139.28477 | 37535 ft | 438 kts | 217° |
| 2026-04-21 18:04 | 46.54686 | 139.23409 | 37538 ft | 438 kts | 217° |
| 2026-04-21 18:05 | 46.49688 | 139.18351 | 37545 ft | 438 kts | 217° |
| 2026-04-21 18:05 | 46.44678 | 139.13301 | 37545 ft | 439 kts | 217° |
| 2026-04-21 18:06 | 46.39662 | 139.08250 | 37543 ft | 439 kts | 217° |
| 2026-04-21 18:06 | 46.34647 | 139.03192 | 37539 ft | 439 kts | 217° |
| 2026-04-21 18:07 | 46.29658 | 138.98177 | 37554 ft | 439 kts | 217° |
| 2026-04-21 18:07 | 46.24648 | 138.93157 | 37574 ft | 437 kts | 217° |
| 2026-04-21 18:08 | 46.19643 | 138.88166 | 37591 ft | 436 kts | 217° |
| 2026-04-21 18:08 | 46.14654 | 138.83197 | 37593 ft | 436 kts | 217° |
| 2026-04-21 18:09 | 46.09669 | 138.78226 | 37583 ft | 435 kts | 217° |
| 2026-04-21 18:09 | 46.04679 | 138.73271 | 37587 ft | 435 kts | 217° |
| 2026-04-21 18:10 | 45.99722 | 138.68365 | 37589 ft | 435 kts | 217° |
| 2026-04-21 18:10 | 45.94726 | 138.63429 | 37587 ft | 435 kts | 217° |
| 2026-04-21 18:11 | 45.89726 | 138.58504 | 37567 ft | 436 kts | 218° |
| 2026-04-21 18:11 | 45.84712 | 138.53576 | 37573 ft | 437 kts | 218° |
| 2026-04-21 18:12 | 45.79688 | 138.48643 | 37581 ft | 438 kts | 218° |
| 2026-04-21 18:12 | 45.74688 | 138.43748 | 37587 ft | 438 kts | 218° |
| 2026-04-21 18:13 | 45.69652 | 138.38834 | 37600 ft | 438 kts | 219° |
| 2026-04-21 18:13 | 45.64622 | 138.33925 | 37612 ft | 437 kts | 219° |
| 2026-04-21 18:14 | 45.57090 | 138.26595 | 37615 ft | 437 kts | 219° |
| 2026-04-21 18:15 | 45.52064 | 138.21729 | 37634 ft | 435 kts | 220° |
| 2026-04-21 18:15 | 45.47091 | 138.16924 | 37647 ft | 433 kts | 220° |
| 2026-04-21 18:16 | 45.42119 | 138.12127 | 37628 ft | 431 kts | 220° |
| 2026-04-21 18:16 | 45.37167 | 138.07336 | 37640 ft | 429 kts | 220° |
| 2026-04-21 18:17 | 45.32224 | 138.02569 | 37638 ft | 429 kts | 220° |
| 2026-04-21 18:17 | 45.27286 | 137.97825 | 37642 ft | 428 kts | 220° |
| 2026-04-21 18:18 | 45.22383 | 137.93126 | 37640 ft | 428 kts | 220° |
| 2026-04-21 18:18 | 45.17446 | 137.88406 | 37646 ft | 427 kts | 220° |
| 2026-04-21 18:19 | 45.12533 | 137.83704 | 37667 ft | 425 kts | 221° |
| 2026-04-21 18:19 | 45.07644 | 137.79043 | 37667 ft | 423 kts | 221° |
| 2026-04-21 18:20 | 45.02773 | 137.74424 | 37658 ft | 421 kts | 221° |
| 2026-04-21 18:20 | 44.97906 | 137.69812 | 37633 ft | 420 kts | 221° |
| 2026-04-21 18:21 | 44.93098 | 137.65261 | 37675 ft | 417 kts | 221° |
| 2026-04-21 18:21 | 44.88287 | 137.60726 | 37678 ft | 415 kts | 221° |
| 2026-04-21 18:22 | 44.83503 | 137.56212 | 37680 ft | 413 kts | 222° |
| 2026-04-21 18:22 | 44.78725 | 137.51712 | 37667 ft | 412 kts | 222° |
| 2026-04-21 18:23 | 44.73962 | 137.47243 | 37675 ft | 410 kts | 222° |
| 2026-04-21 18:23 | 44.69250 | 137.42830 | 37682 ft | 409 kts | 222° |
| 2026-04-21 18:24 | 44.64520 | 137.38405 | 37682 ft | 408 kts | 222° |
| 2026-04-21 18:24 | 44.59792 | 137.33988 | 37657 ft | 408 kts | 222° |
| 2026-04-21 18:25 | 44.55068 | 137.29591 | 37666 ft | 407 kts | 222° |
| 2026-04-21 18:25 | 44.50349 | 137.25213 | 37653 ft | 407 kts | 222° |
| 2026-04-21 18:26 | 44.45627 | 137.20842 | 37665 ft | 407 kts | 222° |
| 2026-04-21 18:26 | 44.40936 | 137.16502 | 37637 ft | 406 kts | 223° |
| 2026-04-21 18:27 | 44.36222 | 137.12142 | 37660 ft | 406 kts | 223° |
| 2026-04-21 18:27 | 44.31515 | 137.07790 | 37671 ft | 406 kts | 223° |
| 2026-04-21 18:28 | 44.26804 | 137.03455 | 37674 ft | 405 kts | 223° |
| 2026-04-21 18:28 | 44.22106 | 136.99116 | 37667 ft | 404 kts | 223° |
| 2026-04-21 18:29 | 44.17422 | 136.94782 | 37685 ft | 404 kts | 223° |
| 2026-04-21 18:29 | 44.12737 | 136.90476 | 37689 ft | 403 kts | 223° |
| 2026-04-21 18:30 | 44.08094 | 136.86210 | 37670 ft | 402 kts | 224° |
| 2026-04-21 18:30 | 44.03437 | 136.81928 | 37664 ft | 399 kts | 224° |
| 2026-04-21 18:31 | 43.98808 | 136.77685 | 37682 ft | 398 kts | 224° |
| 2026-04-21 18:31 | 43.94188 | 136.73463 | 37690 ft | 397 kts | 224° |
| 2026-04-21 18:32 | 43.89571 | 136.69248 | 37689 ft | 397 kts | 224° |
| 2026-04-21 18:32 | 43.84964 | 136.65049 | 37681 ft | 396 kts | 225° |
| 2026-04-21 18:33 | 43.80367 | 136.60878 | 37696 ft | 394 kts | 225° |
| 2026-04-21 18:33 | 43.75810 | 136.56740 | 37702 ft | 393 kts | 225° |
| 2026-04-21 18:34 | 43.71237 | 136.52588 | 37698 ft | 393 kts | 225° |
| 2026-04-21 18:34 | 43.66664 | 136.48460 | 37688 ft | 392 kts | 225° |
| 2026-04-21 18:35 | 43.62878 | 136.45042 | 37683 ft | 391 kts | 225° |
| 2026-04-21 18:35 | 43.57569 | 136.40260 | 37693 ft | 389 kts | 225° |
| 2026-04-21 18:36 | 43.53033 | 136.36170 | 37695 ft | 389 kts | 226° |
| 2026-04-21 18:36 | 43.48533 | 136.32113 | 37697 ft | 389 kts | 225° |
| 2026-04-21 18:37 | 43.44012 | 136.28043 | 37695 ft | 388 kts | 226° |
| 2026-04-21 18:37 | 43.39481 | 136.23979 | 37696 ft | 388 kts | 225° |
| 2026-04-21 18:38 | 43.34962 | 136.19924 | 37681 ft | 388 kts | 226° |
| 2026-04-21 18:38 | 43.30442 | 136.15878 | 37680 ft | 387 kts | 226° |
| 2026-04-21 18:39 | 43.25956 | 136.11874 | 37697 ft | 387 kts | 226° |
| 2026-04-21 18:39 | 43.21445 | 136.07851 | 37697 ft | 387 kts | 226° |
| 2026-04-21 18:40 | 43.16923 | 136.03847 | 37634 ft | 387 kts | 226° |
| 2026-04-21 18:40 | 43.13156 | 136.00520 | 37698 ft | 389 kts | 226° |
| 2026-04-21 18:41 | 43.07846 | 135.95839 | 37701 ft | 388 kts | 226° |
| 2026-04-21 18:41 | 43.03311 | 135.91851 | 37706 ft | 387 kts | 226° |
| 2026-04-21 18:42 | 42.98813 | 135.87892 | 37672 ft | 387 kts | 227° |
| 2026-04-21 18:42 | 42.94280 | 135.83919 | 37693 ft | 386 kts | 226° |
| 2026-04-21 18:43 | 42.89758 | 135.79971 | 37709 ft | 386 kts | 226° |
| 2026-04-21 18:43 | 42.85232 | 135.76025 | 37708 ft | 385 kts | 227° |
| 2026-04-21 18:44 | 42.80722 | 135.72082 | 37677 ft | 385 kts | 227° |
| 2026-04-21 18:44 | 42.76251 | 135.68175 | 37685 ft | 384 kts | 227° |
| 2026-04-21 18:45 | 42.71754 | 135.64257 | 37690 ft | 383 kts | 227° |
| 2026-04-21 18:45 | 42.67260 | 135.60342 | 37702 ft | 383 kts | 227° |
| 2026-04-21 18:46 | 42.62764 | 135.56439 | 37695 ft | 383 kts | 228° |
| 2026-04-21 18:46 | 42.58262 | 135.52541 | 37719 ft | 384 kts | 228° |
| 2026-04-21 18:47 | 42.53790 | 135.48677 | 37712 ft | 383 kts | 228° |
| 2026-04-21 18:47 | 42.49295 | 135.44796 | 37713 ft | 383 kts | 228° |
| 2026-04-21 18:48 | 42.44809 | 135.40921 | 37691 ft | 382 kts | 228° |
| 2026-04-21 18:48 | 42.40321 | 135.37055 | 37701 ft | 382 kts | 228° |
| 2026-04-21 18:49 | 42.35861 | 135.33222 | 37706 ft | 382 kts | 228° |
| 2026-04-21 18:49 | 42.32101 | 135.29998 | 37689 ft | 382 kts | 228° |
| 2026-04-21 18:50 | 42.26873 | 135.25508 | 37713 ft | 385 kts | 228° |
| 2026-04-21 18:50 | 42.22335 | 135.21621 | 37722 ft | 386 kts | 228° |
| 2026-04-21 18:51 | 42.17795 | 135.17762 | 37723 ft | 385 kts | 227° |
| 2026-04-21 18:51 | 42.13261 | 135.13900 | 37721 ft | 385 kts | 228° |
| 2026-04-21 18:52 | 42.08765 | 135.10074 | 37703 ft | 385 kts | 228° |
| 2026-04-21 18:52 | 42.04239 | 135.06234 | 37711 ft | 384 kts | 228° |
| 2026-04-21 18:53 | 41.99723 | 135.02399 | 37718 ft | 384 kts | 228° |
| 2026-04-21 18:53 | 41.95211 | 134.98567 | 37670 ft | 383 kts | 228° |
| 2026-04-21 18:54 | 41.90713 | 134.94763 | 37694 ft | 382 kts | 228° |
| 2026-04-21 18:54 | 41.86219 | 134.90973 | 37705 ft | 381 kts | 228° |
| 2026-04-21 18:55 | 41.82483 | 134.87827 | 37712 ft | 381 kts | 228° |
| 2026-04-21 18:55 | 41.77260 | 134.83447 | 37718 ft | 381 kts | 228° |
| 2026-04-21 18:56 | 41.72773 | 134.79674 | 37725 ft | 381 kts | 228° |
| 2026-04-21 18:56 | 41.69043 | 134.76541 | 37727 ft | 381 kts | 228° |
| 2026-04-21 18:57 | 41.64549 | 134.72787 | 37728 ft | 381 kts | 228° |
| 2026-04-21 18:57 | 41.60061 | 134.69042 | 37721 ft | 379 kts | 228° |
| 2026-04-21 18:58 | 41.55598 | 134.65315 | 37735 ft | 378 kts | 228° |
| 2026-04-21 18:58 | 41.51144 | 134.61599 | 37741 ft | 377 kts | 228° |
| 2026-04-21 18:59 | 41.46725 | 134.57922 | 37748 ft | 377 kts | 228° |
| 2026-04-21 18:59 | 41.42281 | 134.54231 | 37724 ft | 376 kts | 228° |
| 2026-04-21 19:00 | 41.37829 | 134.50540 | 37740 ft | 375 kts | 228° |
| 2026-04-21 19:00 | 41.33394 | 134.46875 | 37742 ft | 375 kts | 228° |
| 2026-04-21 19:01 | 41.28990 | 134.43250 | 37747 ft | 375 kts | 228° |
| 2026-04-21 19:01 | 41.24576 | 134.39613 | 37743 ft | 373 kts | 228° |
| 2026-04-21 19:02 | 41.20176 | 134.35983 | 37757 ft | 372 kts | 228° |
| 2026-04-21 19:02 | 41.15777 | 134.32363 | 37759 ft | 371 kts | 228° |
| 2026-04-21 19:03 | 41.11391 | 134.28752 | 37701 ft | 370 kts | 228° |
| 2026-04-21 19:03 | 41.07055 | 134.25198 | 37754 ft | 368 kts | 228° |
| 2026-04-21 19:04 | 41.02703 | 134.21636 | 37766 ft | 367 kts | 228° |
| 2026-04-21 19:04 | 40.98353 | 134.18100 | 37768 ft | 368 kts | 227° |
| 2026-04-21 19:05 | 40.93879 | 134.14720 | 37748 ft | 371 kts | 226° |
| 2026-04-21 19:05 | 40.89367 | 134.11467 | 37752 ft | 372 kts | 226° |
| 2026-04-21 19:06 | 40.84832 | 134.08190 | 37763 ft | 371 kts | 226° |
| 2026-04-21 19:06 | 40.80316 | 134.04898 | 37772 ft | 370 kts | 226° |
| 2026-04-21 19:07 | 40.75809 | 134.01599 | 37768 ft | 371 kts | 226° |
| 2026-04-21 19:07 | 40.71300 | 133.98301 | 37769 ft | 370 kts | 226° |
| 2026-04-21 19:08 | 40.66811 | 133.95027 | 37777 ft | 370 kts | 226° |
| 2026-04-21 19:08 | 40.62303 | 133.91741 | 37780 ft | 370 kts | 226° |
| 2026-04-21 19:09 | 40.57791 | 133.88460 | 37769 ft | 371 kts | 226° |
| 2026-04-21 19:09 | 40.53273 | 133.85182 | 37783 ft | 370 kts | 226° |
| 2026-04-21 19:10 | 40.48759 | 133.81913 | 37787 ft | 370 kts | 226° |
| 2026-04-21 19:10 | 40.44274 | 133.78668 | 37752 ft | 371 kts | 226° |
| 2026-04-21 19:11 | 40.39736 | 133.75392 | 37801 ft | 373 kts | 226° |
| 2026-04-21 19:11 | 40.35183 | 133.72120 | 37776 ft | 373 kts | 226° |
| 2026-04-21 19:12 | 40.30632 | 133.68851 | 37784 ft | 373 kts | 226° |
| 2026-04-21 19:12 | 40.26085 | 133.65572 | 37780 ft | 373 kts | 226° |
| 2026-04-21 19:13 | 40.21519 | 133.62300 | 37795 ft | 374 kts | 226° |
| 2026-04-21 19:13 | 40.16982 | 133.59056 | 37804 ft | 374 kts | 226° |
| 2026-04-21 19:14 | 40.12409 | 133.55793 | 37813 ft | 374 kts | 226° |
| 2026-04-21 19:14 | 40.07840 | 133.52529 | 37818 ft | 374 kts | 226° |
| 2026-04-21 19:15 | 40.03269 | 133.49265 | 37825 ft | 374 kts | 226° |
| 2026-04-21 19:15 | 39.98696 | 133.46004 | 37798 ft | 375 kts | 226° |
| 2026-04-21 19:16 | 39.94142 | 133.42768 | 37820 ft | 376 kts | 226° |
| 2026-04-21 19:16 | 39.89536 | 133.39496 | 37840 ft | 378 kts | 226° |
| 2026-04-21 19:17 | 39.82618 | 133.34597 | 37845 ft | 377 kts | 226° |
| 2026-04-21 19:17 | 39.78012 | 133.31346 | 37814 ft | 377 kts | 225° |
| 2026-04-21 19:18 | 39.73397 | 133.28090 | 37829 ft | 376 kts | 226° |
| 2026-04-21 19:18 | 39.68825 | 133.24863 | 37838 ft | 376 kts | 225° |
| 2026-04-21 19:19 | 39.64218 | 133.21619 | 37845 ft | 376 kts | 226° |
| 2026-04-21 19:19 | 39.59605 | 133.18375 | 37850 ft | 378 kts | 225° |
| 2026-04-21 19:20 | 39.54979 | 133.15122 | 37860 ft | 378 kts | 225° |
| 2026-04-21 19:20 | 39.50344 | 133.11881 | 37863 ft | 378 kts | 225° |
| 2026-04-21 19:21 | 39.45705 | 133.08648 | 37835 ft | 378 kts | 225° |
| 2026-04-21 19:21 | 39.41102 | 133.05434 | 37850 ft | 378 kts | 225° |
| 2026-04-21 19:22 | 39.36472 | 133.02200 | 37860 ft | 378 kts | 225° |
| 2026-04-21 19:22 | 39.31850 | 132.98953 | 37870 ft | 376 kts | 226° |
| 2026-04-21 19:23 | 39.27337 | 132.95567 | 37823 ft | 374 kts | 227° |
| 2026-04-21 19:23 | 39.22863 | 132.92105 | 37870 ft | 376 kts | 227° |
| 2026-04-21 19:24 | 39.18382 | 132.88677 | 37882 ft | 377 kts | 227° |
| 2026-04-21 19:24 | 39.13844 | 132.85256 | 37852 ft | 378 kts | 226° |
| 2026-04-21 19:25 | 39.09296 | 132.81837 | 37866 ft | 379 kts | 226° |
| 2026-04-21 19:25 | 39.04735 | 132.78422 | 37882 ft | 379 kts | 226° |
| 2026-04-21 19:26 | 39.00175 | 132.74995 | 37857 ft | 379 kts | 226° |
| 2026-04-21 19:26 | 38.95652 | 132.71600 | 37871 ft | 379 kts | 226° |
| 2026-04-21 19:27 | 38.91092 | 132.68187 | 37884 ft | 379 kts | 226° |
| 2026-04-21 19:27 | 38.86529 | 132.64778 | 37885 ft | 379 kts | 226° |
| 2026-04-21 19:28 | 38.81962 | 132.61368 | 37902 ft | 379 kts | 225° |
| 2026-04-21 19:28 | 38.77396 | 132.57962 | 37918 ft | 379 kts | 225° |
| 2026-04-21 19:29 | 38.72866 | 132.54597 | 37930 ft | 378 kts | 225° |
| 2026-04-21 19:29 | 38.68310 | 132.51218 | 37901 ft | 378 kts | 224° |
| 2026-04-21 19:30 | 38.64098 | 132.47480 | 37917 ft | 355 kts | 237° |
| 2026-04-21 19:30 | 38.62501 | 132.45146 | 37927 ft | 343 kts | 244° |
| 2026-04-21 19:30 | 38.61257 | 132.42595 | 37930 ft | 334 kts | 251° |
| 2026-04-21 19:31 | 38.59067 | 132.37352 | 37938 ft | 334 kts | 250° |
| 2026-04-21 19:31 | 38.56863 | 132.32119 | 37937 ft | 334 kts | 250° |
| 2026-04-21 19:32 | 38.54667 | 132.26927 | 37940 ft | 334 kts | 250° |
| 2026-04-21 19:32 | 38.52458 | 132.21699 | 37939 ft | 334 kts | 250° |
| 2026-04-21 19:33 | 38.50258 | 132.16478 | 37935 ft | 334 kts | 250° |
| 2026-04-21 19:33 | 38.48049 | 132.11252 | 37929 ft | 334 kts | 250° |
| 2026-04-21 19:34 | 38.45844 | 132.06040 | 37929 ft | 334 kts | 250° |
| 2026-04-21 19:34 | 38.43628 | 132.00835 | 37936 ft | 334 kts | 250° |
| 2026-04-21 19:35 | 38.40309 | 131.93075 | 37943 ft | 334 kts | 250° |
| 2026-04-21 19:36 | 38.38089 | 131.87882 | 37912 ft | 334 kts | 249° |
| 2026-04-21 19:36 | 38.35872 | 131.82689 | 37923 ft | 334 kts | 249° |
| 2026-04-21 19:37 | 38.33655 | 131.77492 | 37930 ft | 334 kts | 249° |
| 2026-04-21 19:37 | 38.31425 | 131.72297 | 37938 ft | 334 kts | 249° |
| 2026-04-21 19:38 | 38.29191 | 131.67109 | 37938 ft | 334 kts | 249° |
| 2026-04-21 19:38 | 38.27339 | 131.62799 | 37917 ft | 334 kts | 249° |
| 2026-04-21 19:39 | 38.24739 | 131.56772 | 37931 ft | 334 kts | 249° |
| 2026-04-21 19:39 | 38.22498 | 131.51590 | 37941 ft | 334 kts | 249° |
| 2026-04-21 19:40 | 38.20248 | 131.46408 | 37947 ft | 335 kts | 249° |
| 2026-04-21 19:40 | 38.18001 | 131.41223 | 37942 ft | 335 kts | 249° |
| 2026-04-21 19:41 | 38.15750 | 131.36035 | 37948 ft | 335 kts | 249° |
| 2026-04-21 19:41 | 38.13500 | 131.30854 | 37952 ft | 335 kts | 249° |
| 2026-04-21 19:42 | 38.11248 | 131.25677 | 37964 ft | 335 kts | 249° |
| 2026-04-21 19:42 | 38.08988 | 131.20500 | 37973 ft | 335 kts | 249° |
| 2026-04-21 19:43 | 38.06724 | 131.15326 | 37948 ft | 335 kts | 249° |
| 2026-04-21 19:43 | 38.04463 | 131.10151 | 37953 ft | 336 kts | 249° |
| 2026-04-21 19:44 | 38.02208 | 131.05009 | 37975 ft | 335 kts | 249° |
| 2026-04-21 19:44 | 37.99938 | 130.99838 | 37974 ft | 335 kts | 249° |
| 2026-04-21 19:45 | 37.97674 | 130.94684 | 37950 ft | 334 kts | 249° |
| 2026-04-21 19:45 | 37.95401 | 130.89537 | 37960 ft | 335 kts | 248° |
| 2026-04-21 19:46 | 37.93127 | 130.84389 | 37965 ft | 335 kts | 249° |
| 2026-04-21 19:46 | 37.90859 | 130.79236 | 37965 ft | 335 kts | 249° |
| 2026-04-21 19:47 | 37.88589 | 130.74086 | 37955 ft | 335 kts | 248° |
| 2026-04-21 19:47 | 37.86324 | 130.68977 | 37959 ft | 335 kts | 248° |
| 2026-04-21 19:48 | 37.84039 | 130.63833 | 37963 ft | 335 kts | 248° |
| 2026-04-21 19:48 | 37.81750 | 130.58685 | 37968 ft | 336 kts | 248° |
| 2026-04-21 19:49 | 37.79455 | 130.53534 | 37976 ft | 336 kts | 248° |
| 2026-04-21 19:49 | 37.77171 | 130.48387 | 37950 ft | 336 kts | 248° |
| 2026-04-21 19:50 | 37.75266 | 130.44095 | 37956 ft | 336 kts | 248° |
| 2026-04-21 19:50 | 37.72579 | 130.38076 | 37965 ft | 337 kts | 248° |
| 2026-04-21 19:51 | 37.70281 | 130.32955 | 37971 ft | 337 kts | 248° |
| 2026-04-21 19:51 | 37.68200 | 130.27700 | 37954 ft | 330 kts | 257° |
| 2026-04-21 19:52 | 37.67699 | 130.22029 | 37965 ft | 325 kts | 271° |
| 2026-04-21 19:52 | 37.67835 | 130.16312 | 37970 ft | 326 kts | 271° |
| 2026-04-21 19:53 | 37.67939 | 130.11553 | 37970 ft | 326 kts | 271° |
| 2026-04-21 19:53 | 37.68054 | 130.05831 | 37995 ft | 326 kts | 271° |
| 2026-04-21 19:54 | 37.68194 | 129.99168 | 37995 ft | 326 kts | 271° |
| 2026-04-21 19:54 | 37.68294 | 129.94401 | 37996 ft | 326 kts | 271° |
| 2026-04-21 19:55 | 37.68406 | 129.88673 | 37995 ft | 326 kts | 271° |
| 2026-04-21 19:55 | 37.68514 | 129.82946 | 37995 ft | 326 kts | 271° |
| 2026-04-21 19:56 | 37.68621 | 129.77223 | 37994 ft | 326 kts | 271° |
| 2026-04-21 19:56 | 37.68728 | 129.71503 | 37992 ft | 326 kts | 271° |
| 2026-04-21 19:57 | 37.68833 | 129.65788 | 37996 ft | 325 kts | 271° |
| 2026-04-21 19:57 | 37.68932 | 129.60082 | 37991 ft | 325 kts | 271° |
| 2026-04-21 19:58 | 37.69025 | 129.54371 | 37988 ft | 325 kts | 271° |
| 2026-04-21 19:58 | 37.69117 | 129.48661 | 37987 ft | 325 kts | 271° |
| 2026-04-21 19:59 | 37.69216 | 129.42954 | 37986 ft | 325 kts | 271° |
| 2026-04-21 19:59 | 37.69314 | 129.37282 | 37974 ft | 325 kts | 270° |
| 2026-04-21 20:00 | 37.69398 | 129.31579 | 38005 ft | 325 kts | 270° |
| 2026-04-21 20:00 | 37.69475 | 129.25884 | 38002 ft | 324 kts | 270° |
| 2026-04-21 20:01 | 37.69554 | 129.20197 | 38002 ft | 324 kts | 270° |
| 2026-04-21 20:01 | 37.69625 | 129.14513 | 37997 ft | 323 kts | 270° |
| 2026-04-21 20:02 | 37.69698 | 129.08856 | 38001 ft | 320 kts | 270° |
| 2026-04-21 20:02 | 37.69771 | 129.03259 | 37988 ft | 318 kts | 270° |
| 2026-04-21 20:03 | 37.69843 | 128.97700 | 37994 ft | 319 kts | 270° |
| 2026-04-21 20:03 | 37.69908 | 128.92102 | 37988 ft | 319 kts | 269° |
| 2026-04-21 20:04 | 37.69970 | 128.86476 | 37999 ft | 321 kts | 269° |
| 2026-04-21 20:04 | 37.69998 | 128.83676 | 38006 ft | 321 kts | 269° |
| 2026-04-21 20:05 | 37.70052 | 128.78309 | 38007 ft | 320 kts | 269° |
| 2026-04-21 20:05 | 37.69953 | 128.74555 | 38017 ft | 319 kts | 262° |
| 2026-04-21 20:06 | 37.69124 | 128.69033 | 38016 ft | 320 kts | 261° |
| 2026-04-21 20:06 | 37.68314 | 128.63550 | 37995 ft | 320 kts | 261° |
| 2026-04-21 20:07 | 37.67493 | 128.58009 | 38000 ft | 321 kts | 261° |
| 2026-04-21 20:07 | 37.66641 | 128.52453 | 37904 ft | 323 kts | 261° |
| 2026-04-21 20:07 | 37.66214 | 128.49669 | 37037 ft | 330 kts | 261° |
| 2026-04-21 20:08 | 37.65780 | 128.46816 | 36340 ft | 332 kts | 261° |
| 2026-04-21 20:08 | 37.65344 | 128.43944 | 35553 ft | 336 kts | 261° |
| 2026-04-21 20:08 | 37.64902 | 128.41028 | 34703 ft | 341 kts | 261° |
| 2026-04-21 20:08 | 37.64453 | 128.38067 | 33779 ft | 346 kts | 261° |
| 2026-04-21 20:09 | 37.63995 | 128.35055 | 32713 ft | 353 kts | 261° |
| 2026-04-21 20:09 | 37.63525 | 128.31991 | 31627 ft | 359 kts | 261° |
| 2026-04-21 20:09 | 37.63044 | 128.28875 | 30778 ft | 363 kts | 261° |
| 2026-04-21 20:09 | 37.62577 | 128.25853 | 29991 ft | 362 kts | 261° |
| 2026-04-21 20:10 | 37.62081 | 128.22641 | 29024 ft | 361 kts | 260° |
| 2026-04-21 20:10 | 37.61602 | 128.19538 | 28114 ft | 360 kts | 260° |
| 2026-04-21 20:10 | 37.61127 | 128.16443 | 27209 ft | 359 kts | 260° |
| 2026-04-21 20:10 | 37.60649 | 128.13349 | 26362 ft | 358 kts | 259° |
| 2026-04-21 20:11 | 37.60173 | 128.10270 | 25541 ft | 357 kts | 259° |
| 2026-04-21 20:11 | 37.59701 | 128.07210 | 24741 ft | 355 kts | 259° |
| 2026-04-21 20:11 | 37.59228 | 128.04162 | 23965 ft | 353 kts | 258° |
| 2026-04-21 20:11 | 37.58758 | 128.01137 | 23112 ft | 351 kts | 258° |
| 2026-04-21 20:12 | 37.58290 | 127.98157 | 22227 ft | 349 kts | 258° |
| 2026-04-21 20:12 | 37.57819 | 127.95170 | 21531 ft | 344 kts | 258° |
| 2026-04-21 20:12 | 37.57356 | 127.92231 | 20900 ft | 341 kts | 258° |
| 2026-04-21 20:12 | 37.56896 | 127.89297 | 20281 ft | 342 kts | 258° |
| 2026-04-21 20:13 | 37.56434 | 127.86356 | 19687 ft | 342 kts | 258° |
| 2026-04-21 20:13 | 37.55973 | 127.83414 | 19088 ft | 343 kts | 258° |
| 2026-04-21 20:13 | 37.55507 | 127.80460 | 18548 ft | 343 kts | 258° |
| 2026-04-21 20:13 | 37.55041 | 127.77502 | 18275 ft | 345 kts | 258° |
| 2026-04-21 20:14 | 37.54571 | 127.74530 | 18069 ft | 346 kts | 258° |
| 2026-04-21 20:14 | 37.54101 | 127.71555 | 18076 ft | 346 kts | 258° |
| 2026-04-21 20:14 | 37.53629 | 127.68579 | 18077 ft | 346 kts | 258° |
| 2026-04-21 20:14 | 37.53158 | 127.65602 | 18077 ft | 346 kts | 258° |
| 2026-04-21 20:15 | 37.52688 | 127.62627 | 18076 ft | 346 kts | 258° |
| 2026-04-21 20:15 | 37.52222 | 127.59692 | 18078 ft | 346 kts | 258° |
| 2026-04-21 20:15 | 37.51749 | 127.56724 | 18079 ft | 346 kts | 258° |
| 2026-04-21 20:15 | 37.51275 | 127.53752 | 18078 ft | 346 kts | 258° |
| 2026-04-21 20:16 | 37.50797 | 127.50783 | 18077 ft | 346 kts | 258° |
| 2026-04-21 20:16 | 37.50317 | 127.47810 | 18082 ft | 346 kts | 258° |
| 2026-04-21 20:16 | 37.49839 | 127.44850 | 18075 ft | 345 kts | 258° |
| 2026-04-21 20:16 | 37.49314 | 127.41915 | 17710 ft | 343 kts | 253° |
| 2026-04-21 20:17 | 37.48374 | 127.39153 | 16837 ft | 344 kts | 241° |
| 2026-04-21 20:17 | 37.46961 | 127.36738 | 15994 ft | 343 kts | 229° |
| 2026-04-21 20:17 | 37.45190 | 127.34792 | 15185 ft | 343 kts | 218° |
| 2026-04-21 20:17 | 37.43239 | 127.33075 | 14386 ft | 341 kts | 217° |
| 2026-04-21 20:18 | 37.41925 | 127.31916 | 13855 ft | 341 kts | 217° |
| 2026-04-21 20:18 | 37.39373 | 127.29656 | 13199 ft | 337 kts | 218° |
| 2026-04-21 20:18 | 37.37456 | 127.27952 | 13065 ft | 337 kts | 218° |
| 2026-04-21 20:18 | 37.35537 | 127.26244 | 13091 ft | 339 kts | 217° |
| 2026-04-21 20:19 | 37.33655 | 127.24572 | 13094 ft | 320 kts | 217° |
| 2026-04-21 20:19 | 37.31887 | 127.23009 | 13095 ft | 303 kts | 217° |
| 2026-04-21 20:19 | 37.30205 | 127.21460 | 13090 ft | 297 kts | 223° |
| 2026-04-21 20:19 | 37.28815 | 127.19578 | 13091 ft | 293 kts | 236° |
| 2026-04-21 20:20 | 37.27818 | 127.17369 | 13088 ft | 290 kts | 249° |
| 2026-04-21 20:20 | 37.27249 | 127.14949 | 13089 ft | 289 kts | 261° |
| 2026-04-21 20:20 | 37.27111 | 127.12471 | 13089 ft | 288 kts | 271° |
| 2026-04-21 20:20 | 37.27120 | 127.09961 | 13011 ft | 286 kts | 271° |
| 2026-04-21 20:21 | 37.27121 | 127.07471 | 12588 ft | 284 kts | 270° |
| 2026-04-21 20:21 | 37.27121 | 127.05000 | 12196 ft | 282 kts | 270° |
| 2026-04-21 20:21 | 37.27121 | 127.02553 | 11775 ft | 280 kts | 270° |
| 2026-04-21 20:21 | 37.27121 | 127.00112 | 11361 ft | 278 kts | 270° |
| 2026-04-21 20:22 | 37.27120 | 126.97735 | 11232 ft | 267 kts | 270° |
| 2026-04-21 20:22 | 37.27163 | 126.93249 | 10983 ft | 248 kts | 277° |
| 2026-04-21 20:22 | 37.27603 | 126.91204 | 10857 ft | 240 kts | 292° |
| 2026-04-21 20:23 | 37.28443 | 126.89428 | 10741 ft | 235 kts | 306° |
| 2026-04-21 20:23 | 37.29464 | 126.87896 | 10615 ft | 226 kts | 300° |
| 2026-04-21 20:23 | 37.29884 | 126.86071 | 10493 ft | 216 kts | 270° |
| 2026-04-21 20:23 | 37.29601 | 126.84267 | 10371 ft | 209 kts | 248° |
| 2026-04-21 20:24 | 37.28787 | 126.82786 | 10188 ft | 208 kts | 227° |
| 2026-04-21 20:24 | 37.27573 | 126.81718 | 9752 ft | 218 kts | 215° |
| 2026-04-21 20:24 | 37.26270 | 126.80694 | 9302 ft | 224 kts | 216° |
| 2026-04-21 20:24 | 37.24936 | 126.79639 | 8851 ft | 230 kts | 216° |
| 2026-04-21 20:25 | 37.23567 | 126.78555 | 8405 ft | 235 kts | 216° |
| 2026-04-21 20:25 | 37.22188 | 126.77462 | 7975 ft | 239 kts | 216° |
| 2026-04-21 20:25 | 37.20771 | 126.76337 | 7545 ft | 243 kts | 216° |
| 2026-04-21 20:25 | 37.19334 | 126.75194 | 7127 ft | 246 kts | 216° |
| 2026-04-21 20:26 | 37.17971 | 126.73972 | 7005 ft | 233 kts | 229° |
| 2026-04-21 20:26 | 37.17218 | 126.72277 | 6896 ft | 219 kts | 257° |
| 2026-04-21 20:26 | 37.17249 | 126.70430 | 6772 ft | 211 kts | 285° |
| 2026-04-21 20:26 | 37.17896 | 126.68843 | 6645 ft | 198 kts | 298° |
| 2026-04-21 20:27 | 37.18590 | 126.67417 | 6437 ft | 188 kts | 301° |
| 2026-04-21 20:27 | 37.19470 | 126.66221 | 6102 ft | 187 kts | 318° |
| 2026-04-21 20:27 | 37.20530 | 126.65282 | 5768 ft | 185 kts | 321° |
| 2026-04-21 20:27 | 37.21582 | 126.64355 | 5456 ft | 186 kts | 320° |
| 2026-04-21 20:28 | 37.22636 | 126.63421 | 5148 ft | 189 kts | 320° |
| 2026-04-21 20:28 | 37.23698 | 126.62478 | 4972 ft | 185 kts | 320° |
| 2026-04-21 20:28 | 37.24735 | 126.61552 | 4752 ft | 182 kts | 320° |
| 2026-04-21 20:28 | 37.25764 | 126.60638 | 4516 ft | 180 kts | 320° |
| 2026-04-21 20:29 | 37.26786 | 126.59734 | 4266 ft | 179 kts | 320° |
| 2026-04-21 20:29 | 37.27804 | 126.58833 | 4024 ft | 178 kts | 320° |
| 2026-04-21 20:29 | 37.28814 | 126.57940 | 3789 ft | 177 kts | 320° |
| 2026-04-21 20:29 | 37.29821 | 126.57049 | 3547 ft | 177 kts | 320° |
| 2026-04-21 20:30 | 37.30819 | 126.56167 | 3311 ft | 174 kts | 320° |
| 2026-04-21 20:30 | 37.31802 | 126.55297 | 3079 ft | 171 kts | 320° |
| 2026-04-21 20:30 | 37.32766 | 126.54444 | 2843 ft | 168 kts | 320° |
| 2026-04-21 20:30 | 37.33711 | 126.53607 | 2621 ft | 164 kts | 321° |
| 2026-04-21 20:31 | 37.34635 | 126.52788 | 2399 ft | 161 kts | 321° |
| 2026-04-21 20:31 | 37.35530 | 126.51995 | 2184 ft | 158 kts | 321° |
| 2026-04-21 20:31 | 37.36420 | 126.51207 | 2007 ft | 153 kts | 321° |
| 2026-04-21 20:31 | 37.37274 | 126.50450 | 1770 ft | 149 kts | 321° |
| 2026-04-21 20:32 | 37.38100 | 126.49717 | 1558 ft | 140 kts | 320° |
| 2026-04-21 20:32 | 37.38870 | 126.49035 | 1373 ft | 130 kts | 320° |
| 2026-04-21 20:32 | 37.39592 | 126.48394 | 1202 ft | 125 kts | 320° |
| 2026-04-21 20:32 | 37.40294 | 126.47770 | 1039 ft | 123 kts | 321° |
| 2026-04-21 20:33 | 37.40997 | 126.47145 | 872 ft | 123 kts | 322° |
| 2026-04-21 20:33 | 37.41679 | 126.46540 | 706 ft | 119 kts | 323° |
| 2026-04-21 20:33 | 37.42358 | 126.45938 | 531 ft | 119 kts | 324° |
| 2026-04-21 20:33 | 37.43035 | 126.45336 | 372 ft | 119 kts | 324° |
| 2026-04-21 20:34 | 37.43702 | 126.44744 | 213 ft | 119 kts | 324° |
| 2026-04-21 20:34 | 37.44374 | 126.44147 | 80 ft | 118 kts | 324° |
| 2026-04-21 20:34 | 37.45003 | 126.43585 | 35 ft | 102 kts | 325° |
| 2026-04-21 20:34 | 37.45519 | 126.43127 | 32 ft | 68 kts | 324° |
| 2026-04-21 20:35 | 37.45744 | 126.43005 | 33 ft | 20 kts | 36° |
| 2026-04-21 20:35 | 37.45789 | 126.43076 | 33 ft | 2 kts | 54° |
| 2026-04-21 20:35 | 37.45813 | 126.43107 | 33 ft | 6 kts | 34° |
| 2026-04-21 20:35 | 37.45870 | 126.43120 | 33 ft | 11 kts | 25° |
| 2026-04-21 20:36 | 37.45928 | 126.43207 | 33 ft | 14 kts | 54° |
| 2026-04-21 20:36 | 37.45970 | 126.43318 | 33 ft | 16 kts | 104° |
| 2026-04-21 20:36 | 37.45947 | 126.43431 | 31 ft | 16 kts | 55° |
| 2026-04-21 20:36 | 37.45991 | 126.43528 | 31 ft | 10 kts | 100° |
| 2026-04-21 20:37 | 37.45940 | 126.43558 | 33 ft | 7 kts | 146° |
| 2026-04-21 20:37 | 37.45925 | 126.43571 | 33 ft | 0 kts | 144° |